Time,TemperatureF,DewpointF,PressureIn,WindDirection,WindDirectionDegrees,WindSpeedMPH,WindSpeedGustMPH,Humidity,HourlyPrecipIn,Conditions,Clouds,dailyrainin,SoftwareType,DateUTC
2013-06-17 08:43:00,63.0,62.0,30.05,SSW,209,0.0,-999.0,98,-99.99,,,-99.99,,2013-06-17 12:43:00,
2013-06-17 08:53:00,63.0,62.0,30.05,SSW,209,0.0,-999.0,98,-99.99,,,-99.99,,2013-06-17 12:53:00,
2013-06-17 09:02:00,63.0,62.0,30.06,SSW,209,0.0,-999.0,97,-99.99,,,-99.99,,2013-06-17 13:02:00,
2013-06-17 09:12:00,64.0,63.0,30.06,SSW,209,0.0,-999.0,97,-99.99,,,-99.99,,2013-06-17 13:12:00,
2013-06-17 09:22:00,64.0,63.0,30.06,SSW,209,0.0,-999.0,97,-99.99,,,-99.99,,2013-06-17 13:22:00,
2013-06-17 09:32:00,65.0,64.0,30.05,West,266,2.0,-999.0,96,-99.99,,,-99.99,,2013-06-17 13:32:00,
2013-06-17 09:43:00,67.0,65.0,30.05,West,266,1.0,-999.0,94,-99.99,,,-99.99,,2013-06-17 13:43:00,
2013-06-17 09:52:00,67.0,65.0,30.05,West,266,1.0,-999.0,94,-99.99,,,-99.99,,2013-06-17 13:52:00,
2013-06-17 10:02:00,69.0,66.0,30.04,NW,311,1.0,-999.0,89,-99.99,,,-99.99,,2013-06-17 14:02:00,
2013-06-17 10:12:00,69.0,66.0,30.04,NW,311,1.0,-999.0,89,-99.99,,,-99.99,,2013-06-17 14:12:00,
2013-06-17 10:22:00,70.0,66.0,30.03,WSW,254,1.0,-999.0,86,-99.99,,,-99.99,,2013-06-17 14:22:00,
2013-06-17 10:34:00,70.0,66.0,30.03,NW,316,2.0,-999.0,86,-99.99,,,-99.99,,2013-06-17 14:34:00,
2013-06-17 10:43:00,71.0,66.0,30.04,WNW,296,4.0,-999.0,84,-99.99,,,-99.99,,2013-06-17 14:43:00,
2013-06-17 10:53:00,71.0,66.0,30.04,WNW,296,4.0,-999.0,84,-99.99,,,-99.99,,2013-06-17 14:53:00,
2013-06-17 11:02:00,71.0,66.0,30.04,NW,315,4.0,-999.0,85,-99.99,,,-99.99,,2013-06-17 15:02:00,
2013-06-17 11:12:00,71.0,66.0,30.04,NW,315,4.0,-999.0,85,-99.99,,,-99.99,,2013-06-17 15:12:00,
2013-06-17 11:22:00,72.0,66.0,30.04,NNW,348,5.0,-999.0,81,-99.99,,,-99.99,,2013-06-17 15:22:00,
2013-06-17 11:33:00,73.0,66.0,30.05,NNW,331,7.0,-999.0,80,-99.99,,,-99.99,,2013-06-17 15:33:00,
2013-06-17 11:43:00,71.0,65.0,30.05,NNW,340,6.0,-999.0,80,-99.99,,,-99.99,,2013-06-17 15:43:00,
2013-06-17 11:52:00,71.0,65.0,30.05,NNW,340,6.0,-999.0,80,-99.99,,,-99.99,,2013-06-17 15:52:00,
2013-06-17 12:02:00,72.0,65.0,30.05,NW,319,6.0,-999.0,80,-99.99,,,-99.99,,2013-06-17 16:02:00,
2013-06-17 12:12:00,72.0,65.0,30.05,NW,319,6.0,-999.0,80,-99.99,,,-99.99,,2013-06-17 16:12:00,
2013-06-17 12:22:00,72.0,65.0,30.05,WNW,283,8.0,-999.0,78,-99.99,,,-99.99,,2013-06-17 16:22:00,
2013-06-17 12:33:00,73.0,66.0,30.05,WNW,283,7.0,-999.0,80,-99.99,,,-99.99,,2013-06-17 16:33:00,
2013-06-17 12:43:00,73.0,66.0,30.05,WNW,283,7.0,-999.0,80,-99.99,,,-99.99,,2013-06-17 16:43:00,
2013-06-17 12:53:00,73.0,66.0,30.05,WNW,290,8.0,-999.0,79,-99.99,,,-99.99,,2013-06-17 16:53:00,
2013-06-17 13:02:00,73.0,66.0,30.04,WNW,284,8.0,-999.0,78,-99.99,,,-99.99,,2013-06-17 17:02:00,
2013-06-17 13:12:00,73.0,66.0,30.04,WNW,284,8.0,-999.0,78,-99.99,,,-99.99,,2013-06-17 17:12:00,
2013-06-17 13:22:00,74.0,65.0,30.03,WNW,299,6.0,-999.0,74,-99.99,,,-99.99,,2013-06-17 17:22:00,
2013-06-17 13:33:00,74.0,65.0,30.03,West,267,4.0,-999.0,73,-99.99,,,-99.99,,2013-06-17 17:33:00,
2013-06-17 13:43:00,74.0,65.0,30.04,NNW,347,7.0,-999.0,74,-99.99,,,-99.99,,2013-06-17 17:43:00,
2013-06-17 13:52:00,74.0,65.0,30.04,NNW,347,7.0,-999.0,74,-99.99,,,-99.99,,2013-06-17 17:52:00,
2013-06-17 14:02:00,73.0,63.0,30.04,WNW,289,7.0,-999.0,71,-99.99,,,-99.99,,2013-06-17 18:02:00,
2013-06-17 14:12:00,74.0,65.0,30.03,West,280,6.0,-999.0,74,-99.99,,,-99.99,,2013-06-17 18:12:00,
2013-06-17 14:23:00,74.0,65.0,30.03,West,280,6.0,-999.0,74,-99.99,,,-99.99,,2013-06-17 18:23:00,
2013-06-17 14:33:00,75.0,65.0,30.03,WSW,254,5.0,-999.0,71,-99.99,,,-99.99,,2013-06-17 18:33:00,
2013-06-17 14:43:00,76.0,65.0,30.02,NNW,348,6.0,-999.0,68,-99.99,,,-99.99,,2013-06-17 18:43:00,
2013-06-17 14:53:00,76.0,65.0,30.02,NNW,348,6.0,-999.0,68,-99.99,,,-99.99,,2013-06-17 18:53:00,
2013-06-17 15:02:00,77.0,65.0,30.01,North,350,8.0,-999.0,66,-99.99,,,-99.99,,2013-06-17 19:02:00,
2013-06-17 15:12:00,77.0,65.0,30.01,NW,319,7.0,-999.0,67,-99.99,,,-99.99,,2013-06-17 19:12:00,
2013-06-17 15:22:00,77.0,65.0,30.01,NW,319,7.0,-999.0,67,-99.99,,,-99.99,,2013-06-17 19:22:00,
2013-06-17 15:33:00,78.0,64.0,30.01,West,273,5.0,-999.0,62,-99.99,,,-99.99,,2013-06-17 19:33:00,
2013-06-17 15:43:00,77.0,65.0,30.00,NNW,332,6.0,-999.0,66,-99.99,,,-99.99,,2013-06-17 19:43:00,
2013-06-17 15:53:00,77.0,65.0,30.00,NNW,332,6.0,-999.0,66,-99.99,,,-99.99,,2013-06-17 19:53:00,
2013-06-17 16:02:00,78.0,65.0,30.00,North,350,6.0,-999.0,64,-99.99,,,-99.99,,2013-06-17 20:02:00,
2013-06-17 16:11:00,78.0,65.0,30.00,North,350,6.0,-999.0,64,-99.99,,,-99.99,,2013-06-17 20:11:00,
2013-06-17 16:22:00,77.0,64.0,29.99,NNW,348,5.0,-999.0,65,-99.99,,,-99.99,,2013-06-17 20:22:00,
2013-06-17 16:34:00,78.0,65.0,29.98,NNW,336,5.0,-999.0,65,-99.99,,,-99.99,,2013-06-17 20:34:00,
2013-06-17 16:43:00,79.0,67.0,29.97,NW,306,3.0,-999.0,66,-99.99,,,-99.99,,2013-06-17 20:43:00,
2013-06-17 16:52:00,79.0,67.0,29.97,NW,306,3.0,-999.0,66,-99.99,,,-99.99,,2013-06-17 20:52:00,
2013-06-17 17:01:00,79.0,64.0,29.96,NW,317,3.0,-999.0,61,-99.99,,,-99.99,,2013-06-17 21:01:00,
2013-06-17 17:12:00,79.0,64.0,29.96,NW,317,3.0,-999.0,61,-99.99,,,-99.99,,2013-06-17 21:12:00,
2013-06-17 17:22:00,79.0,65.0,29.96,NNW,336,1.0,-999.0,63,-99.99,,,-99.99,,2013-06-17 21:22:00,
2013-06-17 17:33:00,79.0,67.0,29.96,NW,317,1.0,-999.0,66,-99.99,,,-99.99,,2013-06-17 21:33:00,
2013-06-17 17:43:00,79.0,64.0,29.97,WNW,285,5.0,-999.0,61,-99.99,,,-99.99,,2013-06-17 21:43:00,
2013-06-17 17:52:00,79.0,64.0,29.97,WNW,285,5.0,-999.0,61,-99.99,,,-99.99,,2013-06-17 21:52:00,
2013-06-17 18:01:00,79.0,68.0,29.97,South,185,1.0,-999.0,69,-99.99,,,-99.99,,2013-06-17 22:01:00,
2013-06-17 18:11:00,78.0,64.0,29.97,West,263,4.0,-999.0,63,-99.99,,,-99.99,,2013-06-17 22:11:00,
2013-06-17 18:22:00,78.0,64.0,29.97,West,263,4.0,-999.0,63,-99.99,,,-99.99,,2013-06-17 22:22:00,
2013-06-17 18:34:00,78.0,67.0,29.97,SE,142,3.0,-999.0,70,-99.99,,,-99.99,,2013-06-17 22:34:00,
2013-06-17 18:43:00,76.0,67.0,29.97,South,188,4.0,-999.0,74,-99.99,,,-99.99,,2013-06-17 22:43:00,
2013-06-17 18:53:00,76.0,67.0,29.97,South,188,4.0,-999.0,74,-99.99,,,-99.99,,2013-06-17 22:53:00,
2013-06-17 19:02:00,76.0,66.0,29.97,SSE,152,4.0,-999.0,72,-99.99,,,-99.99,,2013-06-17 23:02:00,
2013-06-17 19:11:00,74.0,67.0,29.98,SE,146,2.0,-999.0,78,-99.99,,,-99.99,,2013-06-17 23:11:00,
2013-06-17 19:22:00,74.0,67.0,29.98,SE,146,2.0,-999.0,78,-99.99,,,-99.99,,2013-06-17 23:22:00,
2013-06-17 19:33:00,73.0,67.0,29.98,SE,146,2.0,-999.0,82,-99.99,,,-99.99,,2013-06-17 23:33:00,
2013-06-17 19:42:00,72.0,67.0,29.98,South,170,5.0,-999.0,85,-99.99,,,-99.99,,2013-06-17 23:42:00,
2013-06-17 19:53:00,72.0,67.0,29.98,South,170,5.0,-999.0,85,-99.99,,,-99.99,,2013-06-17 23:53:00,
2013-06-17 20:01:00,71.0,66.0,29.98,SW,223,1.0,-999.0,84,-99.99,,,-99.99,,2013-06-18 00:01:00,
2013-06-17 20:12:00,69.0,66.0,29.99,SE,138,4.0,-999.0,90,-99.99,,,-99.99,,2013-06-18 00:12:00,
2013-06-17 20:22:00,69.0,66.0,29.99,SE,138,4.0,-999.0,90,-99.99,,,-99.99,,2013-06-18 00:22:00,
2013-06-17 20:33:00,67.0,65.0,29.99,SE,136,0.0,-999.0,93,-99.99,,,-99.99,,2013-06-18 00:33:00,
2013-06-17 20:43:00,67.0,65.0,29.98,SE,136,0.0,-999.0,94,-99.99,,,-99.99,,2013-06-18 00:43:00,
2013-06-17 20:52:00,67.0,65.0,29.98,SE,136,0.0,-999.0,94,-99.99,,,-99.99,,2013-06-18 00:52:00,
2013-06-17 21:01:00,67.0,66.0,29.99,SE,136,0.0,-999.0,95,-99.99,,,-99.99,,2013-06-18 01:01:00,
2013-06-17 21:12:00,66.0,65.0,29.98,SE,136,0.0,-999.0,95,-99.99,,,-99.99,,2013-06-18 01:12:00,
2013-06-17 21:23:00,66.0,65.0,29.98,SE,136,0.0,-999.0,95,-99.99,,,-99.99,,2013-06-18 01:23:00,
2013-06-17 21:34:00,66.0,65.0,29.98,SE,136,0.0,-999.0,96,-99.99,,,-99.99,,2013-06-18 01:34:00,
2013-06-17 21:44:00,66.0,65.0,29.98,SE,136,1.0,-999.0,96,-99.99,,,-99.99,,2013-06-18 01:44:00,
2013-06-17 21:53:00,66.0,65.0,29.98,SE,136,1.0,-999.0,96,-99.99,,,-99.99,,2013-06-18 01:53:00,
2013-06-17 22:02:00,66.0,65.0,29.99,SE,136,1.0,-999.0,96,-99.99,,,-99.99,,2013-06-18 02:02:00,
2013-06-17 22:11:00,66.0,65.0,29.99,SE,136,1.0,-999.0,96,-99.99,,,-99.99,,2013-06-18 02:11:00,
2013-06-17 22:22:00,65.0,64.0,29.99,WNW,300,3.0,-999.0,97,-99.99,,,-99.99,,2013-06-18 02:22:00,
2013-06-17 22:34:00,65.0,64.0,30.00,NW,305,3.0,-999.0,97,-99.99,,,-99.99,,2013-06-18 02:34:00,
2013-06-17 22:43:00,65.0,64.0,30.00,NW,305,3.0,-999.0,97,-99.99,,,-99.99,,2013-06-18 02:43:00,
2013-06-17 22:53:00,66.0,65.0,30.00,NNW,328,3.0,-999.0,97,-99.99,,,-99.99,,2013-06-18 02:53:00,
2013-06-17 23:02:00,65.0,64.0,29.98,NNW,328,1.0,-999.0,96,-99.99,,,-99.99,,2013-06-18 03:02:00,
2013-06-17 23:12:00,65.0,64.0,29.98,NNW,328,1.0,-999.0,96,-99.99,,,-99.99,,2013-06-18 03:12:00,
2013-06-17 23:23:00,65.0,64.0,30.00,NNW,328,1.0,-999.0,96,-99.99,,,-99.99,,2013-06-18 03:23:00,
2013-06-17 23:34:00,65.0,64.0,30.00,NNW,328,0.0,-999.0,97,-99.99,,,-99.99,,2013-06-18 03:34:00,
2013-06-17 23:43:00,65.0,64.0,30.00,NNW,328,0.0,-999.0,97,-99.99,,,-99.99,,2013-06-18 03:43:00,
2013-06-17 23:53:00,65.0,64.0,30.00,NNW,328,1.0,-999.0,96,-99.99,,,-99.99,,2013-06-18 03:53:00,